sensor_id;sensor_type;location;lat;lon;timestamp;P1;durP1;ratioP1;P2;durP2;ratioP2
50954;SDS011;36966;48.064;-0.792;2023-03-03T00:01:22;25.20;;;12.32;;
50954;SDS011;36966;48.064;-0.792;2023-03-03T00:03:45;27.42;;;13.32;;
50954;SDS011;36966;48.064;-0.792;2023-03-03T00:06:04;23.98;;;12.60;;
50954;SDS011;36966;48.064;-0.792;2023-03-03T00:08:27;23.30;;;12.50;;
50954;SDS011;36966;48.064;-0.792;2023-03-03T00:10:47;24.98;;;11.82;;
50954;SDS011;36966;48.064;-0.792;2023-03-03T00:13:12;27.00;;;13.30;;
50954;SDS011;36966;48.064;-0.792;2023-03-03T00:15:34;26.52;;;13.57;;
50954;SDS011;36966;48.064;-0.792;2023-03-03T00:17:54;30.95;;;14.10;;
50954;SDS011;36966;48.064;-0.792;2023-03-03T00:22:57;29.83;;;13.52;;
50954;SDS011;36966;48.064;-0.792;2023-03-03T00:25:32;24.00;;;13.10;;
50954;SDS011;36966;48.064;-0.792;2023-03-03T00:27:52;27.55;;;13.20;;
50954;SDS011;36966;48.064;-0.792;2023-03-03T00:30:16;24.05;;;13.10;;
50954;SDS011;36966;48.064;-0.792;2023-03-03T00:32:43;27.20;;;13.27;;
50954;SDS011;36966;48.064;-0.792;2023-03-03T00:35:20;29.77;;;14.77;;
50954;SDS011;36966;48.064;-0.792;2023-03-03T00:37:46;28.27;;;13.55;;
50954;SDS011;36966;48.064;-0.792;2023-03-03T00:40:15;26.73;;;13.45;;
50954;SDS011;36966;48.064;-0.792;2023-03-03T00:42:46;25.55;;;12.38;;
50954;SDS011;36966;48.064;-0.792;2023-03-03T00:45:17;26.85;;;13.55;;
50954;SDS011;36966;48.064;-0.792;2023-03-03T00:47:46;29.63;;;14.10;;
50954;SDS011;36966;48.064;-0.792;2023-03-03T00:52:26;28.15;;;14.30;;
50954;SDS011;36966;48.064;-0.792;2023-03-03T00:54:46;26.20;;;13.05;;
50954;SDS011;36966;48.064;-0.792;2023-03-03T00:57:06;30.45;;;14.15;;
50954;SDS011;36966;48.064;-0.792;2023-03-03T00:59:25;24.98;;;13.43;;
50954;SDS011;36966;48.064;-0.792;2023-03-03T01:01:44;30.95;;;14.60;;
50954;SDS011;36966;48.064;-0.792;2023-03-03T01:04:03;28.52;;;14.18;;
50954;SDS011;36966;48.064;-0.792;2023-03-03T01:06:22;22.95;;;12.77;;
50954;SDS011;36966;48.064;-0.792;2023-03-03T01:08:41;30.67;;;13.45;;
50954;SDS011;36966;48.064;-0.792;2023-03-03T01:11:22;33.33;;;13.50;;
50954;SDS011;36966;48.064;-0.792;2023-03-03T01:13:42;30.33;;;14.23;;
50954;SDS011;36966;48.064;-0.792;2023-03-03T01:16:04;25.95;;;13.82;;
50954;SDS011;36966;48.064;-0.792;2023-03-03T01:18:24;29.45;;;15.73;;
50954;SDS011;36966;48.064;-0.792;2023-03-03T01:20:43;28.48;;;13.70;;
50954;SDS011;36966;48.064;-0.792;2023-03-03T01:23:03;33.20;;;15.40;;
50954;SDS011;36966;48.064;-0.792;2023-03-03T01:25:22;26.15;;;13.10;;
50954;SDS011;36966;48.064;-0.792;2023-03-03T01:27:41;26.25;;;13.80;;
50954;SDS011;36966;48.064;-0.792;2023-03-03T01:30:01;30.27;;;14.60;;
50954;SDS011;36966;48.064;-0.792;2023-03-03T01:32:23;24.45;;;13.00;;
50954;SDS011;36966;48.064;-0.792;2023-03-03T01:34:43;32.05;;;14.68;;
50954;SDS011;36966;48.064;-0.792;2023-03-03T01:37:02;27.27;;;13.65;;
50954;SDS011;36966;48.064;-0.792;2023-03-03T01:39:21;34.05;;;15.60;;
50954;SDS011;36966;48.064;-0.792;2023-03-03T01:41:40;33.83;;;14.65;;
50954;SDS011;36966;48.064;-0.792;2023-03-03T01:43:59;36.95;;;15.65;;
50954;SDS011;36966;48.064;-0.792;2023-03-03T01:46:25;32.58;;;15.80;;
50954;SDS011;36966;48.064;-0.792;2023-03-03T01:49:06;26.70;;;14.07;;
50954;SDS011;36966;48.064;-0.792;2023-03-03T01:51:33;30.15;;;15.48;;
50954;SDS011;36966;48.064;-0.792;2023-03-03T01:53:57;32.75;;;15.73;;
50954;SDS011;36966;48.064;-0.792;2023-03-03T01:56:19;35.70;;;15.88;;
50954;SDS011;36966;48.064;-0.792;2023-03-03T01:58:40;30.65;;;15.50;;
50954;SDS011;36966;48.064;-0.792;2023-03-03T02:01:11;34.08;;;16.02;;
50954;SDS011;36966;48.064;-0.792;2023-03-03T02:03:34;35.28;;;16.05;;
50954;SDS011;36966;48.064;-0.792;2023-03-03T02:05:54;30.65;;;15.75;;
50954;SDS011;36966;48.064;-0.792;2023-03-03T02:08:19;30.20;;;15.48;;
50954;SDS011;36966;48.064;-0.792;2023-03-03T02:10:41;30.33;;;14.80;;
50954;SDS011;36966;48.064;-0.792;2023-03-03T02:13:02;33.50;;;15.75;;
50954;SDS011;36966;48.064;-0.792;2023-03-03T02:15:22;30.13;;;14.95;;
50954;SDS011;36966;48.064;-0.792;2023-03-03T02:17:44;32.75;;;16.25;;
50954;SDS011;36966;48.064;-0.792;2023-03-03T02:20:09;35.30;;;15.48;;
50954;SDS011;36966;48.064;-0.792;2023-03-03T02:25:34;33.67;;;15.77;;
50954;SDS011;36966;48.064;-0.792;2023-03-03T02:28:01;30.73;;;15.05;;
50954;SDS011;36966;48.064;-0.792;2023-03-03T02:30:21;33.38;;;15.68;;
50954;SDS011;36966;48.064;-0.792;2023-03-03T02:32:41;33.50;;;16.52;;
50954;SDS011;36966;48.064;-0.792;2023-03-03T02:35:00;32.28;;;14.98;;
50954;SDS011;36966;48.064;-0.792;2023-03-03T02:37:19;30.35;;;15.27;;
50954;SDS011;36966;48.064;-0.792;2023-03-03T02:39:38;30.05;;;15.35;;
50954;SDS011;36966;48.064;-0.792;2023-03-03T02:41:59;29.60;;;14.30;;
50954;SDS011;36966;48.064;-0.792;2023-03-03T02:44:36;35.90;;;15.10;;
50954;SDS011;36966;48.064;-0.792;2023-03-03T02:46:55;34.63;;;16.60;;
50954;SDS011;36966;48.064;-0.792;2023-03-03T02:49:18;37.42;;;16.85;;
50954;SDS011;36966;48.064;-0.792;2023-03-03T02:51:42;37.25;;;16.83;;
50954;SDS011;36966;48.064;-0.792;2023-03-03T02:54:03;30.73;;;15.07;;
50954;SDS011;36966;48.064;-0.792;2023-03-03T02:56:22;32.03;;;15.90;;
50954;SDS011;36966;48.064;-0.792;2023-03-03T02:58:42;34.75;;;15.20;;
50954;SDS011;36966;48.064;-0.792;2023-03-03T03:01:01;30.60;;;15.75;;
50954;SDS011;36966;48.064;-0.792;2023-03-03T03:03:21;31.70;;;16.73;;
50954;SDS011;36966;48.064;-0.792;2023-03-03T03:05:40;29.67;;;16.13;;
50954;SDS011;36966;48.064;-0.792;2023-03-03T03:07:59;31.77;;;15.50;;
50954;SDS011;36966;48.064;-0.792;2023-03-03T03:10:18;35.47;;;15.50;;
50954;SDS011;36966;48.064;-0.792;2023-03-03T03:12:37;29.42;;;15.27;;
50954;SDS011;36966;48.064;-0.792;2023-03-03T03:14:56;25.58;;;13.75;;
50954;SDS011;36966;48.064;-0.792;2023-03-03T03:17:15;32.03;;;15.43;;
50954;SDS011;36966;48.064;-0.792;2023-03-03T03:19:35;33.63;;;15.15;;
50954;SDS011;36966;48.064;-0.792;2023-03-03T03:21:54;31.08;;;15.98;;
50954;SDS011;36966;48.064;-0.792;2023-03-03T03:24:13;32.97;;;15.45;;
50954;SDS011;36966;48.064;-0.792;2023-03-03T03:26:32;29.08;;;15.88;;
50954;SDS011;36966;48.064;-0.792;2023-03-03T03:28:52;29.17;;;14.75;;
50954;SDS011;36966;48.064;-0.792;2023-03-03T03:31:11;30.48;;;15.63;;
50954;SDS011;36966;48.064;-0.792;2023-03-03T03:33:31;31.42;;;15.32;;
50954;SDS011;36966;48.064;-0.792;2023-03-03T03:35:51;32.00;;;14.77;;
50954;SDS011;36966;48.064;-0.792;2023-03-03T03:38:10;32.85;;;14.63;;
50954;SDS011;36966;48.064;-0.792;2023-03-03T03:40:30;29.90;;;14.70;;
50954;SDS011;36966;48.064;-0.792;2023-03-03T03:42:49;29.85;;;14.85;;
50954;SDS011;36966;48.064;-0.792;2023-03-03T03:45:09;31.98;;;13.80;;
50954;SDS011;36966;48.064;-0.792;2023-03-03T03:47:32;30.63;;;15.40;;
50954;SDS011;36966;48.064;-0.792;2023-03-03T03:49:51;32.58;;;15.43;;
50954;SDS011;36966;48.064;-0.792;2023-03-03T03:52:10;28.20;;;14.15;;
50954;SDS011;36966;48.064;-0.792;2023-03-03T03:54:30;27.25;;;13.43;;
50954;SDS011;36966;48.064;-0.792;2023-03-03T03:56:49;30.42;;;14.90;;
50954;SDS011;36966;48.064;-0.792;2023-03-03T03:59:08;32.15;;;14.65;;
50954;SDS011;36966;48.064;-0.792;2023-03-03T04:01:27;30.45;;;14.00;;
50954;SDS011;36966;48.064;-0.792;2023-03-03T04:03:47;30.05;;;15.18;;
50954;SDS011;36966;48.064;-0.792;2023-03-03T04:06:06;33.92;;;15.10;;
50954;SDS011;36966;48.064;-0.792;2023-03-03T04:08:25;27.38;;;13.75;;
50954;SDS011;36966;48.064;-0.792;2023-03-03T04:10:44;32.28;;;15.90;;
50954;SDS011;36966;48.064;-0.792;2023-03-03T04:13:03;26.30;;;13.73;;
50954;SDS011;36966;48.064;-0.792;2023-03-03T04:15:23;29.73;;;14.50;;
50954;SDS011;36966;48.064;-0.792;2023-03-03T04:17:42;29.98;;;14.70;;
50954;SDS011;36966;48.064;-0.792;2023-03-03T04:20:02;27.20;;;14.90;;
50954;SDS011;36966;48.064;-0.792;2023-03-03T04:22:22;31.20;;;15.80;;
50954;SDS011;36966;48.064;-0.792;2023-03-03T04:24:41;30.13;;;15.05;;
50954;SDS011;36966;48.064;-0.792;2023-03-03T04:27:01;29.85;;;14.50;;
50954;SDS011;36966;48.064;-0.792;2023-03-03T04:29:20;29.52;;;14.98;;
50954;SDS011;36966;48.064;-0.792;2023-03-03T04:31:39;31.52;;;14.30;;
50954;SDS011;36966;48.064;-0.792;2023-03-03T04:33:58;30.30;;;14.55;;
50954;SDS011;36966;48.064;-0.792;2023-03-03T04:36:18;28.27;;;14.75;;
50954;SDS011;36966;48.064;-0.792;2023-03-03T04:38:38;32.75;;;15.40;;
50954;SDS011;36966;48.064;-0.792;2023-03-03T04:40:57;34.67;;;15.07;;
50954;SDS011;36966;48.064;-0.792;2023-03-03T04:43:16;31.27;;;15.30;;
50954;SDS011;36966;48.064;-0.792;2023-03-03T04:45:35;29.17;;;15.10;;
50954;SDS011;36966;48.064;-0.792;2023-03-03T04:47:54;32.28;;;17.23;;
50954;SDS011;36966;48.064;-0.792;2023-03-03T04:50:14;34.10;;;14.98;;
50954;SDS011;36966;48.064;-0.792;2023-03-03T04:52:33;33.47;;;14.48;;
50954;SDS011;36966;48.064;-0.792;2023-03-03T04:54:53;32.10;;;15.60;;
50954;SDS011;36966;48.064;-0.792;2023-03-03T04:57:12;32.63;;;16.98;;
50954;SDS011;36966;48.064;-0.792;2023-03-03T04:59:31;33.67;;;15.32;;
50954;SDS011;36966;48.064;-0.792;2023-03-03T05:01:50;35.70;;;17.02;;
50954;SDS011;36966;48.064;-0.792;2023-03-03T05:04:10;36.13;;;16.48;;
50954;SDS011;36966;48.064;-0.792;2023-03-03T05:06:29;30.23;;;16.08;;
50954;SDS011;36966;48.064;-0.792;2023-03-03T05:08:48;31.88;;;15.90;;
50954;SDS011;36966;48.064;-0.792;2023-03-03T05:11:07;28.92;;;15.13;;
50954;SDS011;36966;48.064;-0.792;2023-03-03T05:13:27;32.22;;;16.33;;
50954;SDS011;36966;48.064;-0.792;2023-03-03T05:15:50;31.83;;;16.13;;
50954;SDS011;36966;48.064;-0.792;2023-03-03T05:18:11;32.90;;;15.85;;
50954;SDS011;36966;48.064;-0.792;2023-03-03T05:20:30;33.83;;;16.15;;
50954;SDS011;36966;48.064;-0.792;2023-03-03T05:22:49;30.92;;;16.27;;
50954;SDS011;36966;48.064;-0.792;2023-03-03T05:25:09;37.97;;;17.05;;
50954;SDS011;36966;48.064;-0.792;2023-03-03T05:27:30;35.78;;;16.35;;
50954;SDS011;36966;48.064;-0.792;2023-03-03T05:29:49;38.58;;;16.23;;
50954;SDS011;36966;48.064;-0.792;2023-03-03T05:32:09;32.97;;;17.15;;
50954;SDS011;36966;48.064;-0.792;2023-03-03T05:34:29;32.53;;;16.23;;
50954;SDS011;36966;48.064;-0.792;2023-03-03T05:36:48;37.83;;;17.60;;
50954;SDS011;36966;48.064;-0.792;2023-03-03T05:39:08;40.33;;;17.27;;
50954;SDS011;36966;48.064;-0.792;2023-03-03T05:41:27;30.40;;;16.08;;
50954;SDS011;36966;48.064;-0.792;2023-03-03T05:43:46;33.92;;;15.77;;
50954;SDS011;36966;48.064;-0.792;2023-03-03T05:46:05;39.15;;;17.27;;
50954;SDS011;36966;48.064;-0.792;2023-03-03T05:48:24;33.92;;;17.17;;
50954;SDS011;36966;48.064;-0.792;2023-03-03T05:50:43;37.10;;;18.05;;
50954;SDS011;36966;48.064;-0.792;2023-03-03T05:53:02;37.13;;;17.42;;
50954;SDS011;36966;48.064;-0.792;2023-03-03T05:55:22;29.88;;;15.18;;
50954;SDS011;36966;48.064;-0.792;2023-03-03T05:57:43;40.88;;;19.35;;
50954;SDS011;36966;48.064;-0.792;2023-03-03T06:00:03;38.63;;;17.73;;
50954;SDS011;36966;48.064;-0.792;2023-03-03T06:02:23;36.35;;;18.55;;
50954;SDS011;36966;48.064;-0.792;2023-03-03T06:04:43;39.80;;;18.45;;
50954;SDS011;36966;48.064;-0.792;2023-03-03T06:07:02;40.55;;;17.67;;
50954;SDS011;36966;48.064;-0.792;2023-03-03T06:09:21;38.38;;;18.38;;
50954;SDS011;36966;48.064;-0.792;2023-03-03T06:11:41;37.80;;;17.55;;
50954;SDS011;36966;48.064;-0.792;2023-03-03T06:13:59;42.08;;;19.60;;
50954;SDS011;36966;48.064;-0.792;2023-03-03T06:16:19;39.17;;;16.27;;
50954;SDS011;36966;48.064;-0.792;2023-03-03T06:18:38;42.72;;;20.50;;
50954;SDS011;36966;48.064;-0.792;2023-03-03T06:20:57;40.65;;;18.55;;
50954;SDS011;36966;48.064;-0.792;2023-03-03T06:23:16;38.47;;;17.15;;
50954;SDS011;36966;48.064;-0.792;2023-03-03T06:25:35;40.50;;;18.52;;
50954;SDS011;36966;48.064;-0.792;2023-03-03T06:27:57;41.05;;;19.67;;
50954;SDS011;36966;48.064;-0.792;2023-03-03T06:30:16;50.83;;;19.40;;
50954;SDS011;36966;48.064;-0.792;2023-03-03T06:32:36;36.40;;;18.88;;
50954;SDS011;36966;48.064;-0.792;2023-03-03T06:34:56;45.00;;;19.75;;
50954;SDS011;36966;48.064;-0.792;2023-03-03T06:37:15;46.65;;;20.92;;
50954;SDS011;36966;48.064;-0.792;2023-03-03T06:39:34;36.28;;;16.98;;
50954;SDS011;36966;48.064;-0.792;2023-03-03T06:41:54;41.85;;;20.25;;
50954;SDS011;36966;48.064;-0.792;2023-03-03T06:44:13;44.15;;;20.25;;
50954;SDS011;36966;48.064;-0.792;2023-03-03T06:46:32;42.40;;;18.63;;
50954;SDS011;36966;48.064;-0.792;2023-03-03T06:48:52;45.28;;;19.83;;
50954;SDS011;36966;48.064;-0.792;2023-03-03T06:51:16;41.15;;;20.05;;
50954;SDS011;36966;48.064;-0.792;2023-03-03T06:53:41;41.40;;;19.63;;
50954;SDS011;36966;48.064;-0.792;2023-03-03T06:56:00;49.10;;;22.17;;
50954;SDS011;36966;48.064;-0.792;2023-03-03T06:58:20;43.83;;;19.98;;
50954;SDS011;36966;48.064;-0.792;2023-03-03T07:00:53;48.40;;;21.25;;
50954;SDS011;36966;48.064;-0.792;2023-03-03T07:03:16;39.88;;;18.38;;
50954;SDS011;36966;48.064;-0.792;2023-03-03T07:05:37;43.53;;;19.60;;
50954;SDS011;36966;48.064;-0.792;2023-03-03T07:07:56;49.60;;;22.42;;
50954;SDS011;36966;48.064;-0.792;2023-03-03T07:10:18;51.10;;;22.27;;
50954;SDS011;36966;48.064;-0.792;2023-03-03T07:12:43;52.15;;;21.95;;
50954;SDS011;36966;48.064;-0.792;2023-03-03T07:17:35;53.92;;;23.77;;
50954;SDS011;36966;48.064;-0.792;2023-03-03T07:20:23;56.05;;;24.15;;
50954;SDS011;36966;48.064;-0.792;2023-03-03T07:22:48;50.70;;;22.98;;
50954;SDS011;36966;48.064;-0.792;2023-03-03T07:25:17;51.45;;;23.00;;
50954;SDS011;36966;48.064;-0.792;2023-03-03T07:27:39;51.78;;;22.83;;
50954;SDS011;36966;48.064;-0.792;2023-03-03T07:30:17;46.22;;;21.05;;
50954;SDS011;36966;48.064;-0.792;2023-03-03T07:32:45;58.08;;;23.77;;
50954;SDS011;36966;48.064;-0.792;2023-03-03T07:35:52;48.15;;;23.17;;
50954;SDS011;36966;48.064;-0.792;2023-03-03T07:37:54;56.63;;;24.75;;
50954;SDS011;36966;48.064;-0.792;2023-03-03T07:40:33;52.83;;;22.63;;
50954;SDS011;36966;48.064;-0.792;2023-03-03T07:42:55;53.28;;;23.20;;
50954;SDS011;36966;48.064;-0.792;2023-03-03T07:45:28;56.47;;;22.30;;
50954;SDS011;36966;48.064;-0.792;2023-03-03T07:47:49;50.30;;;22.20;;
50954;SDS011;36966;48.064;-0.792;2023-03-03T07:50:17;56.58;;;22.50;;
50954;SDS011;36966;48.064;-0.792;2023-03-03T07:52:40;50.95;;;23.33;;
50954;SDS011;36966;48.064;-0.792;2023-03-03T07:55:01;50.60;;;23.45;;
50954;SDS011;36966;48.064;-0.792;2023-03-03T08:07:55;57.42;;;23.90;;
50954;SDS011;36966;48.064;-0.792;2023-03-03T08:10:44;51.58;;;23.55;;
50954;SDS011;36966;48.064;-0.792;2023-03-03T08:13:17;52.08;;;24.40;;
50954;SDS011;36966;48.064;-0.792;2023-03-03T08:15:38;53.05;;;24.75;;
50954;SDS011;36966;48.064;-0.792;2023-03-03T08:17:57;53.10;;;23.77;;
50954;SDS011;36966;48.064;-0.792;2023-03-03T08:22:57;46.95;;;21.63;;
50954;SDS011;36966;48.064;-0.792;2023-03-03T08:25:16;51.38;;;20.65;;
50954;SDS011;36966;48.064;-0.792;2023-03-03T08:27:35;48.78;;;22.08;;
50954;SDS011;36966;48.064;-0.792;2023-03-03T08:29:54;45.83;;;23.02;;
50954;SDS011;36966;48.064;-0.792;2023-03-03T08:32:13;54.85;;;22.30;;
50954;SDS011;36966;48.064;-0.792;2023-03-03T08:34:32;44.65;;;21.45;;
50954;SDS011;36966;48.064;-0.792;2023-03-03T08:36:51;48.88;;;22.20;;
50954;SDS011;36966;48.064;-0.792;2023-03-03T08:39:10;50.22;;;21.33;;
50954;SDS011;36966;48.064;-0.792;2023-03-03T08:41:29;51.00;;;23.20;;
50954;SDS011;36966;48.064;-0.792;2023-03-03T08:43:48;49.38;;;22.95;;
50954;SDS011;36966;48.064;-0.792;2023-03-03T08:46:08;53.70;;;22.85;;
50954;SDS011;36966;48.064;-0.792;2023-03-03T08:48:29;46.67;;;21.88;;
50954;SDS011;36966;48.064;-0.792;2023-03-03T08:50:49;51.92;;;23.15;;
50954;SDS011;36966;48.064;-0.792;2023-03-03T08:53:08;43.75;;;21.00;;
50954;SDS011;36966;48.064;-0.792;2023-03-03T08:55:29;47.97;;;22.48;;
50954;SDS011;36966;48.064;-0.792;2023-03-03T08:57:48;42.78;;;19.92;;
50954;SDS011;36966;48.064;-0.792;2023-03-03T09:00:08;49.80;;;22.35;;
50954;SDS011;36966;48.064;-0.792;2023-03-03T09:02:30;49.20;;;22.25;;
50954;SDS011;36966;48.064;-0.792;2023-03-03T09:04:49;49.25;;;22.13;;
50954;SDS011;36966;48.064;-0.792;2023-03-03T09:07:08;45.95;;;20.65;;
50954;SDS011;36966;48.064;-0.792;2023-03-03T09:09:27;41.13;;;20.05;;
50954;SDS011;36966;48.064;-0.792;2023-03-03T09:11:47;43.70;;;20.15;;
50954;SDS011;36966;48.064;-0.792;2023-03-03T09:16:30;43.67;;;20.43;;
50954;SDS011;36966;48.064;-0.792;2023-03-03T09:18:55;49.22;;;20.67;;
50954;SDS011;36966;48.064;-0.792;2023-03-03T09:21:25;45.20;;;19.35;;
50954;SDS011;36966;48.064;-0.792;2023-03-03T09:28:39;45.65;;;18.73;;
50954;SDS011;36966;48.064;-0.792;2023-03-03T09:30:59;50.10;;;22.15;;
50954;SDS011;36966;48.064;-0.792;2023-03-03T09:35:44;42.38;;;20.55;;
50954;SDS011;36966;48.064;-0.792;2023-03-03T09:38:26;39.72;;;19.90;;
50954;SDS011;36966;48.064;-0.792;2023-03-03T09:40:55;43.78;;;20.10;;
50954;SDS011;36966;48.064;-0.792;2023-03-03T09:43:41;48.20;;;21.00;;
50954;SDS011;36966;48.064;-0.792;2023-03-03T09:46:39;50.97;;;24.30;;
50954;SDS011;36966;48.064;-0.792;2023-03-03T09:49:27;45.38;;;23.10;;
50954;SDS011;36966;48.064;-0.792;2023-03-03T09:52:02;42.20;;;21.80;;
50954;SDS011;36966;48.064;-0.792;2023-03-03T09:57:23;44.42;;;21.17;;
50954;SDS011;36966;48.064;-0.792;2023-03-03T10:05:39;41.00;;;18.98;;
50954;SDS011;36966;48.064;-0.792;2023-03-03T10:10:44;44.55;;;20.92;;
50954;SDS011;36966;48.064;-0.792;2023-03-03T10:13:10;34.97;;;17.65;;
50954;SDS011;36966;48.064;-0.792;2023-03-03T10:15:59;40.30;;;19.20;;
50954;SDS011;36966;48.064;-0.792;2023-03-03T10:24:50;39.65;;;17.55;;
50954;SDS011;36966;48.064;-0.792;2023-03-03T10:32:38;43.35;;;19.33;;
50954;SDS011;36966;48.064;-0.792;2023-03-03T10:53:26;34.53;;;14.73;;
50954;SDS011;36966;48.064;-0.792;2023-03-03T10:55:56;34.70;;;17.25;;
50954;SDS011;36966;48.064;-0.792;2023-03-03T11:01:26;31.23;;;14.95;;
50954;SDS011;36966;48.064;-0.792;2023-03-03T11:19:49;30.77;;;16.08;;
50954;SDS011;36966;48.064;-0.792;2023-03-03T11:22:42;28.52;;;13.98;;
50954;SDS011;36966;48.064;-0.792;2023-03-03T11:30:39;31.38;;;14.88;;
50954;SDS011;36966;48.064;-0.792;2023-03-03T11:33:17;29.90;;;16.00;;
50954;SDS011;36966;48.064;-0.792;2023-03-03T11:41:00;31.25;;;15.63;;
50954;SDS011;36966;48.064;-0.792;2023-03-03T11:46:08;29.05;;;16.13;;
50954;SDS011;36966;48.064;-0.792;2023-03-03T11:50:57;27.52;;;14.50;;
50954;SDS011;36966;48.064;-0.792;2023-03-03T11:55:48;27.13;;;14.05;;
50954;SDS011;36966;48.064;-0.792;2023-03-03T11:58:25;28.17;;;15.52;;
50954;SDS011;36966;48.064;-0.792;2023-03-03T12:19:02;24.63;;;14.38;;
50954;SDS011;36966;48.064;-0.792;2023-03-03T12:24:19;26.13;;;13.25;;
50954;SDS011;36966;48.064;-0.792;2023-03-03T12:34:55;24.95;;;14.02;;
50954;SDS011;36966;48.064;-0.792;2023-03-03T12:37:26;24.35;;;14.07;;
50954;SDS011;36966;48.064;-0.792;2023-03-03T12:40:08;24.55;;;14.30;;
50954;SDS011;36966;48.064;-0.792;2023-03-03T12:42:40;25.35;;;13.15;;
50954;SDS011;36966;48.064;-0.792;2023-03-03T12:45:21;22.05;;;12.57;;
50954;SDS011;36966;48.064;-0.792;2023-03-03T12:48:07;26.80;;;13.35;;
50954;SDS011;36966;48.064;-0.792;2023-03-03T12:50:35;24.98;;;12.98;;
50954;SDS011;36966;48.064;-0.792;2023-03-03T12:53:02;27.25;;;14.45;;
50954;SDS011;36966;48.064;-0.792;2023-03-03T13:05:47;25.98;;;14.00;;
50954;SDS011;36966;48.064;-0.792;2023-03-03T13:11:24;30.40;;;14.63;;
50954;SDS011;36966;48.064;-0.792;2023-03-03T13:13:51;27.83;;;13.98;;
50954;SDS011;36966;48.064;-0.792;2023-03-03T13:16:13;19.65;;;10.98;;
50954;SDS011;36966;48.064;-0.792;2023-03-03T13:18:54;22.65;;;13.77;;
50954;SDS011;36966;48.064;-0.792;2023-03-03T13:21:25;23.17;;;13.52;;
50954;SDS011;36966;48.064;-0.792;2023-03-03T13:24:09;24.55;;;12.70;;
50954;SDS011;36966;48.064;-0.792;2023-03-03T13:26:42;28.52;;;14.50;;
50954;SDS011;36966;48.064;-0.792;2023-03-03T13:32:10;25.42;;;13.93;;
50954;SDS011;36966;48.064;-0.792;2023-03-03T13:39:39;23.33;;;13.63;;
50954;SDS011;36966;48.064;-0.792;2023-03-03T13:42:26;23.40;;;13.45;;
50954;SDS011;36966;48.064;-0.792;2023-03-03T13:44:56;23.52;;;13.27;;
50954;SDS011;36966;48.064;-0.792;2023-03-03T13:47:21;26.00;;;12.98;;
50954;SDS011;36966;48.064;-0.792;2023-03-03T13:52:27;21.33;;;12.63;;
50954;SDS011;36966;48.064;-0.792;2023-03-03T14:00:19;22.05;;;13.15;;
50954;SDS011;36966;48.064;-0.792;2023-03-03T14:07:57;22.67;;;12.57;;
50954;SDS011;36966;48.064;-0.792;2023-03-03T14:12:41;24.33;;;13.55;;
50954;SDS011;36966;48.064;-0.792;2023-03-03T14:15:25;24.40;;;12.18;;
50954;SDS011;36966;48.064;-0.792;2023-03-03T14:20:27;23.25;;;12.50;;
50954;SDS011;36966;48.064;-0.792;2023-03-03T14:25:09;20.08;;;11.88;;
50954;SDS011;36966;48.064;-0.792;2023-03-03T14:27:35;20.70;;;10.55;;
50954;SDS011;36966;48.064;-0.792;2023-03-03T14:32:40;27.20;;;11.68;;
50954;SDS011;36966;48.064;-0.792;2023-03-03T14:35:00;24.27;;;12.48;;
50954;SDS011;36966;48.064;-0.792;2023-03-03T14:37:44;20.20;;;11.50;;
50954;SDS011;36966;48.064;-0.792;2023-03-03T14:42:31;25.02;;;13.48;;
50954;SDS011;36966;48.064;-0.792;2023-03-03T14:44:53;20.05;;;10.80;;
50954;SDS011;36966;48.064;-0.792;2023-03-03T14:47:23;23.30;;;11.63;;
50954;SDS011;36966;48.064;-0.792;2023-03-03T14:49:46;20.20;;;11.98;;
50954;SDS011;36966;48.064;-0.792;2023-03-03T14:54:38;15.70;;;9.70;;
50954;SDS011;36966;48.064;-0.792;2023-03-03T15:04:37;18.67;;;10.25;;
50954;SDS011;36966;48.064;-0.792;2023-03-03T15:06:57;17.98;;;10.52;;
50954;SDS011;36966;48.064;-0.792;2023-03-03T15:11:56;14.98;;;9.05;;
50954;SDS011;36966;48.064;-0.792;2023-03-03T15:14:16;19.13;;;9.57;;
50954;SDS011;36966;48.064;-0.792;2023-03-03T15:16:37;19.77;;;9.38;;
50954;SDS011;36966;48.064;-0.792;2023-03-03T15:21:58;18.10;;;9.70;;
50954;SDS011;36966;48.064;-0.792;2023-03-03T15:24:41;20.55;;;9.52;;
50954;SDS011;36966;48.064;-0.792;2023-03-03T15:27:11;14.18;;;9.20;;
50954;SDS011;36966;48.064;-0.792;2023-03-03T15:29:36;19.15;;;9.77;;
50954;SDS011;36966;48.064;-0.792;2023-03-03T15:32:02;17.10;;;8.93;;
50954;SDS011;36966;48.064;-0.792;2023-03-03T15:42:48;12.47;;;7.10;;
50954;SDS011;36966;48.064;-0.792;2023-03-03T15:45:30;18.27;;;8.35;;
50954;SDS011;36966;48.064;-0.792;2023-03-03T15:47:55;20.23;;;10.02;;
50954;SDS011;36966;48.064;-0.792;2023-03-03T15:50:38;39.88;;;22.25;;
50954;SDS011;36966;48.064;-0.792;2023-03-03T16:04:13;20.67;;;12.93;;
50954;SDS011;36966;48.064;-0.792;2023-03-03T16:06:45;17.48;;;10.25;;
50954;SDS011;36966;48.064;-0.792;2023-03-03T16:15:18;16.77;;;9.63;;
50954;SDS011;36966;48.064;-0.792;2023-03-03T16:20:44;18.60;;;9.95;;
50954;SDS011;36966;48.064;-0.792;2023-03-03T16:34:09;15.23;;;9.00;;
50954;SDS011;36966;48.064;-0.792;2023-03-03T16:36:37;17.45;;;9.18;;
50954;SDS011;36966;48.064;-0.792;2023-03-03T16:39:05;15.32;;;9.10;;
50954;SDS011;36966;48.064;-0.792;2023-03-03T16:46:51;19.17;;;8.55;;
50954;SDS011;36966;48.064;-0.792;2023-03-03T16:49:20;12.55;;;6.93;;
50954;SDS011;36966;48.064;-0.792;2023-03-03T16:51:48;17.45;;;7.28;;
50954;SDS011;36966;48.064;-0.792;2023-03-03T16:54:10;13.57;;;7.13;;
50954;SDS011;36966;48.064;-0.792;2023-03-03T16:59:02;12.13;;;6.72;;
50954;SDS011;36966;48.064;-0.792;2023-03-03T17:01:49;22.92;;;8.70;;
50954;SDS011;36966;48.064;-0.792;2023-03-03T17:07:19;13.82;;;8.13;;
50954;SDS011;36966;48.064;-0.792;2023-03-03T17:20:06;12.77;;;5.75;;
50954;SDS011;36966;48.064;-0.792;2023-03-03T17:22:44;12.05;;;6.13;;
50954;SDS011;36966;48.064;-0.792;2023-03-03T17:42:03;11.50;;;5.88;;
50954;SDS011;36966;48.064;-0.792;2023-03-03T17:44:45;9.40;;;5.35;;
50954;SDS011;36966;48.064;-0.792;2023-03-03T17:52:46;20.47;;;9.50;;
50954;SDS011;36966;48.064;-0.792;2023-03-03T18:06:07;8.45;;;4.90;;
50954;SDS011;36966;48.064;-0.792;2023-03-03T18:17:09;9.02;;;4.53;;
50954;SDS011;36966;48.064;-0.792;2023-03-03T18:22:18;8.63;;;4.00;;
50954;SDS011;36966;48.064;-0.792;2023-03-03T18:29:49;9.77;;;4.25;;
50954;SDS011;36966;48.064;-0.792;2023-03-03T18:32:45;7.45;;;4.35;;
50954;SDS011;36966;48.064;-0.792;2023-03-03T18:35:47;11.80;;;5.68;;
50954;SDS011;36966;48.064;-0.792;2023-03-03T18:37:56;7.30;;;3.67;;
50954;SDS011;36966;48.064;-0.792;2023-03-03T18:40:21;9.93;;;4.18;;
50954;SDS011;36966;48.064;-0.792;2023-03-03T18:42:47;8.70;;;3.08;;
50954;SDS011;36966;48.064;-0.792;2023-03-03T18:47:56;7.32;;;3.55;;
50954;SDS011;36966;48.064;-0.792;2023-03-03T19:00:31;24.67;;;16.15;;
50954;SDS011;36966;48.064;-0.792;2023-03-03T19:05:54;21.30;;;14.07;;
50954;SDS011;36966;48.064;-0.792;2023-03-03T19:13:01;17.85;;;10.48;;
50954;SDS011;36966;48.064;-0.792;2023-03-03T19:17:49;14.85;;;8.35;;
50954;SDS011;36966;48.064;-0.792;2023-03-03T19:20:11;17.50;;;8.65;;
50954;SDS011;36966;48.064;-0.792;2023-03-03T19:22:42;10.65;;;6.60;;
50954;SDS011;36966;48.064;-0.792;2023-03-03T19:27:28;12.70;;;6.13;;
50954;SDS011;36966;48.064;-0.792;2023-03-03T19:29:58;20.73;;;8.80;;
50954;SDS011;36966;48.064;-0.792;2023-03-03T19:43:14;10.60;;;3.50;;
50954;SDS011;36966;48.064;-0.792;2023-03-03T19:48:24;8.02;;;2.55;;